createdAt,value
2022-12-03T00:02:22.399Z,101533.59
2022-12-03T00:05:24.971Z,101501.69
2022-12-03T00:08:27.711Z,101511.97
2022-12-03T00:11:30.261Z,101526.19
2022-12-03T00:14:32.726Z,101512.34
2022-12-03T00:17:35.677Z,101529.09
2022-12-03T00:20:38.130Z,101532.13
2022-12-03T00:23:42.512Z,101524.97
2022-12-03T00:26:45.072Z,101517.59
2022-12-03T00:29:48.616Z,101536.84
2022-12-03T00:32:51.012Z,101534.53
2022-12-03T00:35:53.527Z,101530.63
2022-12-03T00:38:56.148Z,101532.84
2022-12-03T00:41:59.664Z,101528.31
2022-12-03T00:45:02.109Z,101519.97
2022-12-03T00:48:04.651Z,101548.09
2022-12-03T00:51:07.206Z,101539.75
2022-12-03T00:54:09.636Z,101546.31
2022-12-03T00:57:12.182Z,101533.63
2022-12-03T01:00:16.804Z,101539.94
2022-12-03T01:03:19.389Z,101524.06
2022-12-03T01:06:21.984Z,101524.06
2022-12-03T01:09:24.424Z,101542.38
2022-12-03T01:12:26.888Z,101534.97
2022-12-03T01:15:29.349Z,101542.91
2022-12-03T01:18:32.089Z,101524.03
2022-12-03T01:21:35.004Z,101532.91
2022-12-03T01:24:37.367Z,101516.59
2022-12-03T01:27:39.809Z,101529.81
2022-12-03T01:31:02.289Z,101526.03
2022-12-03T01:34:05.304Z,101517.41
2022-12-03T01:37:07.736Z,101531.09
2022-12-03T01:40:12.448Z,101520.19
2022-12-03T01:43:14.909Z,101536.97
2022-12-03T01:46:20.742Z,101523.97
2022-12-03T01:49:28.706Z,101537.81
2022-12-03T01:52:33.557Z,101538.94
2022-12-03T01:55:36.275Z,101538.53
2022-12-03T01:58:39.053Z,101527.47
2022-12-03T02:01:41.592Z,101520.88
2022-12-03T02:04:44.110Z,101514.00
2022-12-03T02:07:46.949Z,101520.31
2022-12-03T02:10:49.413Z,101527.94
2022-12-03T02:13:55.895Z,101531.34
2022-12-03T02:17:00.471Z,101527.16
2022-12-03T02:20:04.756Z,101503.94
2022-12-03T02:23:12.000Z,101536.66
2022-12-03T02:26:14.464Z,101512.16
2022-12-03T02:29:16.875Z,101528.56
2022-12-03T02:32:20.608Z,101533.63
2022-12-03T02:35:29.419Z,101528.00
2022-12-03T02:38:32.730Z,101533.94
2022-12-03T02:41:54.207Z,101527.53
2022-12-03T02:45:02.037Z,101531.31
2022-12-03T02:48:11.832Z,101517.91
2022-12-03T02:51:14.236Z,101524.25
2022-12-03T02:54:16.651Z,101519.94
2022-12-03T02:57:19.151Z,101534.00
2022-12-03T03:00:23.020Z,101527.41
2022-12-03T03:03:27.560Z,101537.97
2022-12-03T03:06:30.196Z,101511.78
2022-12-03T03:09:33.642Z,101517.53
2022-12-03T03:12:39.211Z,101532.09
2022-12-03T03:15:42.508Z,101528.69
2022-12-03T03:18:45.081Z,101530.50
2022-12-03T03:21:47.922Z,101533.44
2022-12-03T03:24:50.586Z,101528.38
2022-12-03T03:27:53.249Z,101534.50
2022-12-03T03:30:56.793Z,101542.47
2022-12-03T03:33:59.238Z,101530.50
2022-12-03T03:37:01.791Z,101537.88
2022-12-03T03:40:04.644Z,101537.72
2022-12-03T03:43:07.267Z,101513.44
2022-12-03T03:46:10.351Z,101504.47
2022-12-03T03:49:14.666Z,101516.09
2022-12-03T03:52:18.617Z,101533.34
2022-12-03T03:55:21.054Z,101513.75
2022-12-03T03:58:23.479Z,101530.69
2022-12-03T04:01:26.055Z,101534.25
2022-12-03T04:04:33.641Z,101524.06
2022-12-03T04:07:36.147Z,101526.03
2022-12-03T04:10:57.002Z,101543.22
2022-12-03T04:13:59.467Z,101535.78
2022-12-03T04:17:01.986Z,101553.47
2022-12-03T04:20:05.438Z,101549.03
2022-12-03T04:23:08.133Z,101546.31
2022-12-03T04:26:28.720Z,101535.09
2022-12-03T04:29:31.101Z,101544.81
2022-12-03T04:32:51.737Z,101536.72
2022-12-03T04:35:54.233Z,101569.78
2022-12-03T04:38:56.696Z,101564.00
2022-12-03T04:41:59.163Z,101546.66
2022-12-03T04:45:01.604Z,101565.34
2022-12-03T04:48:04.351Z,101558.22
2022-12-03T04:51:06.753Z,101551.22
2022-12-03T04:54:09.144Z,101548.94
2022-12-03T04:57:12.771Z,101561.69
2022-12-03T05:00:15.883Z,101562.56
2022-12-03T05:03:18.376Z,101542.03
2022-12-03T05:06:20.782Z,101559.75
2022-12-03T05:09:23.477Z,101549.72
2022-12-03T05:12:25.916Z,101554.06
2022-12-03T05:15:28.308Z,101544.13
2022-12-03T05:18:30.820Z,101555.38
2022-12-03T05:21:33.415Z,101569.13
2022-12-03T05:24:35.848Z,101557.22
2022-12-03T05:27:38.256Z,101566.50
2022-12-03T05:30:41.139Z,101563.75
2022-12-03T05:33:44.520Z,101552.25
2022-12-03T05:36:47.128Z,101569.38
2022-12-03T05:39:49.628Z,101572.06
2022-12-03T05:42:55.036Z,101577.94
2022-12-03T05:45:57.554Z,101554.59
2022-12-03T05:49:00.144Z,101563.91
2022-12-03T05:52:02.909Z,101549.84
2022-12-03T05:55:05.893Z,101548.63
2022-12-03T05:58:08.396Z,101542.81
2022-12-03T06:01:10.783Z,101571.47
2022-12-03T06:04:13.200Z,101566.50
2022-12-03T06:07:15.663Z,101560.06
2022-12-03T06:10:22.707Z,101562.09
2022-12-03T06:13:25.096Z,101572.19
2022-12-03T06:16:27.565Z,101576.81
2022-12-03T06:19:30.115Z,101565.97
2022-12-03T06:22:32.759Z,101563.25
2022-12-03T06:25:35.163Z,101566.44
2022-12-03T06:28:37.984Z,101575.34
2022-12-03T06:31:40.484Z,101549.56
2022-12-03T06:34:43.013Z,101570.31
2022-12-03T06:37:45.492Z,101586.41
2022-12-03T06:40:48.084Z,101567.03
2022-12-03T06:43:50.506Z,101590.03
2022-12-03T06:46:53.150Z,101592.44
2022-12-03T06:49:55.627Z,101582.41
2022-12-03T06:52:58.068Z,101599.22
2022-12-03T06:56:00.614Z,101590.94
2022-12-03T06:59:03.179Z,101594.25
2022-12-03T07:02:05.900Z,101597.41
2022-12-03T07:05:08.543Z,101603.72
2022-12-03T07:08:11.232Z,101589.41
2022-12-03T07:11:32.159Z,101606.28
2022-12-03T07:14:34.551Z,101595.56
2022-12-03T07:17:36.956Z,101606.44
2022-12-03T07:20:39.567Z,101593.16
2022-12-03T07:23:42.005Z,101590.28
2022-12-03T07:26:44.393Z,101593.34
2022-12-03T07:29:46.954Z,101581.50
2022-12-03T07:32:49.496Z,101594.41
2022-12-03T07:35:52.286Z,101599.50
2022-12-03T07:38:54.882Z,101592.75
2022-12-03T07:41:57.421Z,101597.78
2022-12-03T07:44:59.851Z,101563.13
2022-12-03T07:48:02.273Z,101571.66
2022-12-03T07:51:05.253Z,101588.06
2022-12-03T07:54:07.830Z,101592.97
2022-12-03T07:57:10.232Z,101585.75
2022-12-03T08:00:13.268Z,101581.31
2022-12-03T08:03:15.718Z,101597.66
2022-12-03T08:06:18.216Z,101575.44
2022-12-03T08:09:20.608Z,101593.03
2022-12-03T08:12:40.158Z,101594.06
2022-12-03T08:15:43.207Z,101598.94
2022-12-03T08:18:46.781Z,101588.03
2022-12-03T08:21:49.578Z,101570.75
2022-12-03T08:24:52.316Z,101592.91
2022-12-03T08:28:07.881Z,101603.13
2022-12-03T08:31:12.973Z,101605.84
2022-12-03T08:34:17.665Z,101593.84
2022-12-03T08:37:20.144Z,101600.66
2022-12-03T08:40:26.171Z,101596.69
2022-12-03T08:43:29.356Z,101584.56
2022-12-03T08:46:31.783Z,101606.59
2022-12-03T08:49:34.408Z,101596.16
2022-12-03T08:52:37.019Z,101609.91
2022-12-03T08:55:43.659Z,101618.31
2022-12-03T08:59:24.073Z,101629.63
2022-12-03T09:02:31.903Z,101626.78
2022-12-03T09:05:52.463Z,101630.53
2022-12-03T09:08:55.014Z,101607.72
2022-12-03T09:11:57.605Z,101612.81
2022-12-03T09:14:59.980Z,101621.00
2022-12-03T09:18:02.425Z,101624.78
2022-12-03T09:21:05.803Z,101629.16
2022-12-03T09:24:08.301Z,101607.75
2022-12-03T09:27:10.708Z,101603.03
2022-12-03T09:30:13.424Z,101616.81
2022-12-03T09:33:15.908Z,101607.13
2022-12-03T09:36:18.405Z,101620.91
2022-12-03T09:39:20.951Z,101600.69
2022-12-03T09:42:23.377Z,101605.16
2022-12-03T09:45:25.900Z,101613.94
2022-12-03T09:48:28.357Z,101596.34
2022-12-03T09:51:35.484Z,101586.88
2022-12-03T09:54:41.636Z,101597.16
2022-12-03T09:57:48.249Z,101589.28
2022-12-03T10:00:52.302Z,101584.31
2022-12-03T10:03:54.788Z,101594.63
2022-12-03T10:06:58.094Z,101581.16
2022-12-03T10:10:00.546Z,101574.66
2022-12-03T10:13:06.279Z,101568.38
2022-12-03T10:16:12.209Z,101571.00
2022-12-03T10:19:22.891Z,101568.94
2022-12-03T10:22:25.315Z,101555.25
2022-12-03T10:25:27.711Z,101569.22
2022-12-03T10:28:33.213Z,101577.63
2022-12-03T10:31:36.727Z,101561.31
2022-12-03T10:34:42.530Z,101559.22
2022-12-03T10:37:56.776Z,101550.50
2022-12-03T10:41:00.108Z,101524.97
2022-12-03T10:44:30.642Z,101531.78
2022-12-03T10:47:33.268Z,101518.59
2022-12-03T10:50:36.288Z,101522.78
2022-12-03T10:53:40.576Z,101517.28
2022-12-03T10:56:43.273Z,101534.41
2022-12-03T10:59:45.702Z,101512.53
2022-12-03T11:02:54.925Z,101524.66
2022-12-03T11:06:05.991Z,101511.47
2022-12-03T11:09:20.110Z,101527.47
2022-12-03T11:12:28.625Z,101520.34
2022-12-03T11:15:44.345Z,101517.72
2022-12-03T11:18:49.852Z,101534.78
2022-12-03T11:22:05.626Z,101536.06
2022-12-03T11:25:28.803Z,101527.09
2022-12-03T11:28:32.036Z,101518.47
2022-12-03T11:31:39.536Z,101513.91
2022-12-03T11:34:42.141Z,101501.97
2022-12-03T11:37:44.656Z,101506.63
2022-12-03T11:41:11.086Z,101506.63
2022-12-03T11:44:31.754Z,101493.88
2022-12-03T11:47:38.518Z,101508.03
2022-12-03T11:50:52.037Z,101503.00
2022-12-03T11:53:58.524Z,101516.81
2022-12-03T11:57:01.152Z,101510.19
2022-12-03T12:00:20.616Z,101480.19
2022-12-03T12:03:33.286Z,101503.06
2022-12-03T12:06:48.709Z,101496.19
2022-12-03T12:09:55.489Z,101488.22
2022-12-03T12:12:58.213Z,101491.41
2022-12-03T12:16:06.250Z,101493.47
2022-12-03T12:19:43.269Z,101503.19
2022-12-03T12:22:45.664Z,101498.13
2022-12-03T12:25:53.793Z,101502.59
2022-12-03T12:28:56.711Z,101499.19
2022-12-03T12:32:13.212Z,101509.13
2022-12-03T12:35:19.180Z,101495.25
2022-12-03T12:38:22.622Z,101496.69
2022-12-03T12:41:25.071Z,101478.84
2022-12-03T12:44:27.432Z,101480.16
2022-12-03T12:47:30.307Z,101495.16
2022-12-03T12:50:33.324Z,101503.22
2022-12-03T12:53:36.889Z,101497.28
2022-12-03T12:56:42.453Z,101490.41
2022-12-03T12:59:45.265Z,101491.56
2022-12-03T13:02:55.223Z,101479.66
2022-12-03T13:05:57.993Z,101474.25
2022-12-03T13:09:01.268Z,101470.78
2022-12-03T13:12:04.254Z,101473.44
2022-12-03T13:15:17.216Z,101457.91
2022-12-03T13:18:28.615Z,101475.50
2022-12-03T13:21:41.611Z,101465.28
2022-12-03T13:24:47.696Z,101463.94
2022-12-03T13:27:50.757Z,101468.25
2022-12-03T13:30:53.306Z,101452.00
2022-12-03T13:33:56.415Z,101465.09
2022-12-03T13:37:01.002Z,101447.47
2022-12-03T13:40:20.979Z,101459.69
2022-12-03T13:43:23.405Z,101452.41
2022-12-03T13:46:28.408Z,101448.75
2022-12-03T13:49:30.951Z,101462.91
2022-12-03T13:52:34.783Z,101442.66
2022-12-03T13:55:40.421Z,101454.22
2022-12-03T13:58:42.876Z,101457.13
2022-12-03T14:01:45.829Z,101469.09
2022-12-03T14:04:48.349Z,101461.81
2022-12-03T14:07:50.821Z,101468.72
2022-12-03T14:10:59.891Z,101462.28
2022-12-03T14:14:03.329Z,101457.47
2022-12-03T14:17:06.602Z,101469.84
2022-12-03T14:20:10.042Z,101467.56
2022-12-03T14:23:12.619Z,101472.47
2022-12-03T14:26:15.327Z,101465.94
2022-12-03T14:29:17.808Z,101462.56
2022-12-03T14:32:20.177Z,101470.50
2022-12-03T14:35:23.358Z,101474.97
2022-12-03T14:38:25.976Z,101475.03
2022-12-03T14:41:46.929Z,101492.94
2022-12-03T14:44:50.496Z,101493.44
2022-12-03T14:47:52.950Z,101482.94
2022-12-03T14:50:55.414Z,101464.28
2022-12-03T14:53:57.844Z,101494.22
2022-12-03T14:57:00.591Z,101505.78
2022-12-03T15:00:04.234Z,101487.63
2022-12-03T15:03:06.745Z,101493.13
2022-12-03T15:06:09.248Z,101500.22
2022-12-03T15:09:12.063Z,101505.47
2022-12-03T15:12:15.378Z,101482.31
2022-12-03T15:15:17.849Z,101508.94
2022-12-03T15:18:20.363Z,101492.63
2022-12-03T15:21:22.738Z,101500.97
2022-12-03T15:24:25.363Z,101508.84
2022-12-03T15:27:27.808Z,101498.53
2022-12-03T15:30:30.869Z,101507.72
2022-12-03T15:33:33.397Z,101495.78
2022-12-03T15:36:35.897Z,101506.31
2022-12-03T15:39:42.459Z,101517.56
2022-12-03T15:42:49.231Z,101483.13
2022-12-03T15:45:51.802Z,101512.84
2022-12-03T15:48:55.053Z,101515.19
2022-12-03T15:51:57.584Z,101498.00
2022-12-03T15:55:00.036Z,101518.28
2022-12-03T15:58:02.444Z,101517.25
2022-12-03T16:01:05.351Z,101526.38
2022-12-03T16:04:08.157Z,101518.69
2022-12-03T16:07:10.852Z,101525.47
2022-12-03T16:10:13.383Z,101506.50
2022-12-03T16:13:15.938Z,101526.25
2022-12-03T16:16:18.653Z,101529.88
2022-12-03T16:19:21.564Z,101531.66
2022-12-03T16:22:24.207Z,101521.44
2022-12-03T16:25:26.564Z,101520.72
2022-12-03T16:28:29.332Z,101516.47
2022-12-03T16:31:32.074Z,101493.50
2022-12-03T16:34:34.772Z,101487.66
2022-12-03T16:37:37.160Z,101485.56
2022-12-03T16:40:39.978Z,101496.00
2022-12-03T16:43:45.524Z,101488.13
2022-12-03T16:46:48.135Z,101489.19
2022-12-03T16:49:50.740Z,101508.25
2022-12-03T16:52:53.243Z,101504.31
2022-12-03T16:55:55.692Z,101500.31
2022-12-03T16:58:58.154Z,101508.25
2022-12-03T17:02:00.659Z,101506.91
2022-12-03T17:05:03.479Z,101512.41
2022-12-03T17:08:06.072Z,101506.53
2022-12-03T17:11:09.221Z,101493.09
2022-12-03T17:14:12.157Z,101492.25
2022-12-03T17:17:14.589Z,101503.38
2022-12-03T17:20:17.905Z,101478.13
2022-12-03T17:23:20.336Z,101467.88
2022-12-03T17:26:22.833Z,101510.28
2022-12-03T17:29:25.892Z,101497.84
2022-12-03T17:32:28.604Z,101505.75
2022-12-03T17:35:31.118Z,101496.97
2022-12-03T17:38:38.773Z,101514.78
2022-12-03T17:41:42.038Z,101493.72
2022-12-03T17:44:44.500Z,101510.00
2022-12-03T17:47:46.952Z,101514.09
2022-12-03T17:50:50.223Z,101504.31
2022-12-03T17:53:52.630Z,101502.09
2022-12-03T17:56:55.057Z,101499.13
2022-12-03T17:59:57.610Z,101488.19
2022-12-03T18:03:00.239Z,101489.97
2022-12-03T18:06:03.307Z,101479.19
2022-12-03T18:09:05.893Z,101494.38
2022-12-03T18:12:08.321Z,101496.97
2022-12-03T18:15:11.537Z,101501.72
2022-12-03T18:18:14.380Z,101501.72
2022-12-03T18:21:16.777Z,101487.44
2022-12-03T18:24:19.434Z,101492.78
2022-12-03T18:27:22.547Z,101495.59
2022-12-03T18:30:25.193Z,101478.28
2022-12-03T18:33:27.765Z,101487.47
2022-12-03T18:36:34.481Z,101476.84
2022-12-03T18:39:37.159Z,101494.50
2022-12-03T18:42:39.689Z,101475.25
2022-12-03T18:45:42.607Z,101487.84
2022-12-03T18:48:48.076Z,101499.25
2022-12-03T18:51:54.472Z,101497.41
2022-12-03T18:55:01.343Z,101490.66
2022-12-03T18:58:04.086Z,101481.50
2022-12-03T19:01:08.043Z,101480.09
2022-12-03T19:04:11.028Z,101490.94
2022-12-03T19:07:13.952Z,101483.09
2022-12-03T19:10:17.829Z,101486.25
2022-12-03T19:13:20.471Z,101477.16
2022-12-03T19:16:23.540Z,101496.47
2022-12-03T19:19:27.374Z,101492.25
2022-12-03T19:22:29.786Z,101482.34
2022-12-03T19:25:33.047Z,101487.72
2022-12-03T19:28:35.989Z,101477.63
2022-12-03T19:31:39.503Z,101474.91
2022-12-03T19:34:42.358Z,101483.16
2022-12-03T19:37:46.444Z,101473.34
2022-12-03T19:40:58.645Z,101475.88
2022-12-03T19:44:03.153Z,101478.75
2022-12-03T19:47:09.391Z,101489.53
2022-12-03T19:50:19.318Z,101490.31
2022-12-03T19:53:26.244Z,101476.09
2022-12-03T19:56:30.494Z,101493.44
2022-12-03T19:59:33.268Z,101495.38
2022-12-03T20:02:35.973Z,101497.03
2022-12-03T20:05:40.305Z,101500.22
2022-12-03T20:08:43.412Z,101498.88
2022-12-03T20:11:46.430Z,101502.47
2022-12-03T20:14:50.112Z,101486.97
2022-12-03T20:17:53.209Z,101486.91
2022-12-03T20:21:00.089Z,101476.53
2022-12-03T20:24:02.742Z,101482.13
2022-12-03T20:27:05.466Z,101480.56
2022-12-03T20:30:08.466Z,101483.53
2022-12-03T20:33:13.613Z,101487.84
2022-12-03T20:36:17.834Z,101481.28
2022-12-03T20:39:20.674Z,101495.78
2022-12-03T20:42:23.540Z,101495.31
2022-12-03T20:45:27.307Z,101500.31
2022-12-03T20:48:30.130Z,101468.81
2022-12-03T20:51:33.024Z,101477.22
2022-12-03T20:54:35.784Z,101482.84
2022-12-03T20:57:38.237Z,101494.38
2022-12-03T21:00:40.975Z,101479.31
2022-12-03T21:03:45.165Z,101504.13
2022-12-03T21:06:47.759Z,101505.59
2022-12-03T21:09:50.877Z,101507.53
2022-12-03T21:12:53.568Z,101499.19
2022-12-03T21:16:07.256Z,101503.16
2022-12-03T21:19:09.780Z,101506.78
2022-12-03T21:22:12.352Z,101493.38
2022-12-03T21:25:15.163Z,101499.19
2022-12-03T21:28:17.547Z,101481.06
2022-12-03T21:31:25.827Z,101497.59
2022-12-03T21:34:35.518Z,101500.84
2022-12-03T21:37:38.600Z,101511.00
2022-12-03T21:40:41.070Z,101502.69
2022-12-03T21:43:43.934Z,101500.38
2022-12-03T21:47:12.689Z,101502.53
2022-12-03T21:50:11.516Z,101500.69
2022-12-03T21:53:13.930Z,101511.28
2022-12-03T21:56:19.109Z,101518.13
2022-12-03T21:59:21.607Z,101514.38
2022-12-03T22:02:24.079Z,101510.38
2022-12-03T22:05:26.558Z,101513.06
2022-12-03T22:08:28.948Z,101486.84
2022-12-03T22:11:31.449Z,101490.88
2022-12-03T22:14:33.819Z,101506.41
2022-12-03T22:17:37.201Z,101488.34
2022-12-03T22:20:42.238Z,101496.44
2022-12-03T22:23:45.071Z,101481.00
2022-12-03T22:26:47.705Z,101480.25
2022-12-03T22:29:50.157Z,101473.59
2022-12-03T22:32:52.621Z,101500.38
2022-12-03T22:35:59.954Z,101483.03
2022-12-03T22:39:02.369Z,101494.31
2022-12-03T22:42:04.997Z,101508.09
2022-12-03T22:45:07.615Z,101494.53
2022-12-03T22:48:10.280Z,101497.84
2022-12-03T22:51:17.402Z,101508.69
2022-12-03T22:54:23.915Z,101503.13
2022-12-03T22:57:26.829Z,101484.31
2022-12-03T23:00:32.621Z,101502.69
2022-12-03T23:03:35.252Z,101496.59
2022-12-03T23:06:38.205Z,101484.69
2022-12-03T23:09:40.945Z,101484.63
2022-12-03T23:12:43.661Z,101475.81
2022-12-03T23:15:47.496Z,101492.06
2022-12-03T23:18:50.688Z,101470.84
2022-12-03T23:21:53.129Z,101493.63
2022-12-03T23:24:55.633Z,101488.25
2022-12-03T23:27:58.036Z,101471.31
2022-12-03T23:31:00.784Z,101460.84
2022-12-03T23:34:03.937Z,101470.16
2022-12-03T23:37:06.500Z,101469.00
2022-12-03T23:40:09.384Z,101457.75
2022-12-03T23:43:11.951Z,101475.06
2022-12-03T23:46:16.984Z,101468.53
2022-12-03T23:49:19.449Z,101462.34
2022-12-03T23:52:21.943Z,101451.44
2022-12-03T23:55:24.409Z,101442.72
2022-12-03T23:58:27.040Z,101436.56
